Time;durP1;ratioP1;P1;durP2;ratioP2;P2;SDS_P1;SDS_P2;PMS_P1;PMS_P2;Temp;Humidity;BMP_temperature;BMP_pressure;BME280_temperature;BME280_humidity;BME280_pressure;Samples;Min_cycle;Max_cycle;Signal;HPM_P1;HPM_P2
2022/11/25 00:00:38;;;;;;;11.77;3.80;;;9.60;99.90;;;;;;2075615;28;20032;-71
2022/11/25 00:01:38;;;;;;;16.30;3.85;;;9.60;99.90;;;;;;2077786;28;20473;-71
2022/11/25 00:02:43;;;;;;;14.40;2.97;;;9.60;99.90;;;;;;2076420;28;20076;-71
2022/11/25 00:03:45;;;;;;;13.65;3.10;;;9.60;99.90;;;;;;2076279;28;20021;-71
2022/11/25 00:04:45;;;;;;;11.93;3.00;;;9.60;99.90;;;;;;2077418;28;20064;-71
2022/11/25 00:05:46;;;;;;;11.88;3.47;;;9.60;99.90;;;;;;2075991;28;20052;-71
2022/11/25 00:06:46;;;;;;;13.30;3.70;;;9.60;99.90;;;;;;2076979;28;20040;-71
2022/11/25 00:07:47;;;;;;;15.63;3.65;;;9.60;99.90;;;;;;2076001;28;20025;-71
2022/11/25 00:08:50;;;;;;;13.07;3.60;;;9.70;99.90;;;;;;2074228;28;20481;-71
2022/11/25 00:09:51;;;;;;;16.05;3.50;;;9.70;99.90;;;;;;2078551;28;20026;-71
2022/11/25 00:10:51;;;;;;;13.95;3.20;;;9.70;99.90;;;;;;2077615;28;20027;-71
2022/11/25 00:11:52;;;;;;;16.35;3.60;;;9.70;99.90;;;;;;2076883;28;20537;-71
2022/11/25 00:12:52;;;;;;;15.90;3.85;;;9.70;99.90;;;;;;2076430;28;20705;-71
2022/11/25 00:13:54;;;;;;;17.08;3.42;;;9.70;99.90;;;;;;2077014;28;20038;-71
2022/11/25 00:14:55;;;;;;;13.75;3.40;;;9.70;99.90;;;;;;2077032;28;20029;-71
2022/11/25 00:15:59;;;;;;;7.50;3.20;;;9.70;99.90;;;;;;2075793;28;20120;-71
2022/11/25 00:17:00;;;;;;;12.93;3.38;;;9.70;99.90;;;;;;2076065;28;20036;-71
2022/11/25 00:18:00;;;;;;;14.10;3.55;;;9.70;99.90;;;;;;2077641;28;20045;-71
2022/11/25 00:19:01;;;;;;;15.10;3.58;;;9.80;99.90;;;;;;2074587;28;20022;-71
2022/11/25 00:20:04;;;;;;;15.68;4.00;;;9.80;99.90;;;;;;2076271;28;20026;-71
2022/11/25 00:21:10;;;;;;;13.10;3.17;;;9.80;99.90;;;;;;2076274;28;20544;-71
2022/11/25 00:22:10;;;;;;;12.63;3.60;;;9.80;99.90;;;;;;2076060;28;20770;-71
2022/11/25 00:23:11;;;;;;;13.45;3.40;;;9.80;99.90;;;;;;2082718;28;20617;-71
2022/11/25 00:24:14;;;;;;;13.65;3.50;;;9.80;99.90;;;;;;2083389;28;20039;-71
2022/11/25 00:25:14;;;;;;;12.20;3.25;;;9.80;99.90;;;;;;2076144;28;20030;-71
2022/11/25 00:26:15;;;;;;;12.80;3.08;;;9.80;99.90;;;;;;2075652;28;20053;-71
2022/11/25 00:27:16;;;;;;;13.45;3.45;;;9.80;99.90;;;;;;2076780;28;20033;-71
2022/11/25 00:28:17;;;;;;;12.20;4.03;;;9.80;99.90;;;;;;2075416;28;20022;-71
2022/11/25 00:29:18;;;;;;;14.98;4.35;;;9.80;99.90;;;;;;2076569;28;20029;-71
2022/11/25 00:30:18;;;;;;;11.93;3.83;;;9.80;99.90;;;;;;2076435;28;20113;-71
2022/11/25 00:31:24;;;;;;;14.65;4.22;;;9.80;99.90;;;;;;2076579;28;20033;-71
2022/11/25 00:32:25;;;;;;;14.07;3.72;;;9.90;99.90;;;;;;2075300;28;20022;-71
2022/11/25 00:33:25;;;;;;;14.23;3.15;;;9.90;99.90;;;;;;2076275;28;20088;-71
2022/11/25 00:34:26;;;;;;;12.27;3.03;;;9.90;99.90;;;;;;2077159;28;20017;-71
2022/11/25 00:35:26;;;;;;;12.10;3.30;;;9.90;99.90;;;;;;2077591;28;20105;-71
2022/11/25 00:36:30;;;;;;;10.95;3.78;;;9.90;99.90;;;;;;2077743;28;20060;-71
2022/11/25 00:37:31;;;;;;;14.30;4.05;;;9.90;99.90;;;;;;2076338;28;20437;-71
2022/11/25 00:38:32;;;;;;;12.77;3.58;;;9.90;99.90;;;;;;2076002;28;20056;-71
2022/11/25 00:39:32;;;;;;;14.68;3.20;;;9.90;99.90;;;;;;2075331;28;20034;-71
2022/11/25 00:40:33;;;;;;;9.65;3.15;;;9.90;99.90;;;;;;2077046;28;20226;-71
2022/11/25 00:44:34;;;;;;;9.25;2.97;;;9.90;99.90;;;;;;2075136;28;20044;-71
2022/11/25 00:45:34;;;;;;;12.85;3.47;;;9.90;99.90;;;;;;2074759;28;20041;-71
2022/11/25 00:46:35;;;;;;;15.63;3.83;;;9.90;99.90;;;;;;2075179;28;20029;-71
2022/11/25 00:47:36;;;;;;;11.43;3.55;;;9.90;99.90;;;;;;2077516;28;20116;-71
2022/11/25 00:48:36;;;;;;;12.35;3.15;;;9.90;99.90;;;;;;2076379;28;20492;-71
2022/11/25 00:49:42;;;;;;;13.45;4.13;;;9.90;99.90;;;;;;2076091;28;20722;-71
2022/11/25 00:50:42;;;;;;;8.68;2.83;;;9.90;99.90;;;;;;2076131;28;20727;-71
2022/11/25 00:51:43;;;;;;;10.98;2.80;;;9.90;99.90;;;;;;2075730;28;20443;-71
2022/11/25 00:52:43;;;;;;;10.50;3.50;;;9.90;99.90;;;;;;2076129;28;20032;-71
2022/11/25 00:53:44;;;;;;;16.95;3.60;;;9.90;99.90;;;;;;2076837;28;20117;-71
2022/11/25 00:54:48;;;;;;;13.10;2.90;;;9.90;99.90;;;;;;2074286;28;20033;-71
2022/11/25 00:57:08;;;;;;;8.57;2.53;;;10.00;99.90;;;;;;2076101;28;20038;-71
2022/11/25 00:58:08;;;;;;;19.25;4.10;;;10.00;99.90;;;;;;2073594;28;20034;-71
2022/11/25 00:59:09;;;;;;;13.23;3.63;;;9.90;99.90;;;;;;2074312;28;20037;-71
2022/11/25 01:00:11;;;;;;;20.95;5.32;;;10.00;99.90;;;;;;2075513;28;20025;-71
2022/11/25 01:01:11;;;;;;;13.27;3.30;;;10.00;99.90;;;;;;2075953;28;20052;-71
2022/11/25 01:02:13;;;;;;;13.10;3.75;;;10.00;99.90;;;;;;2076712;28;20053;-71
2022/11/25 01:03:14;;;;;;;12.32;3.20;;;10.00;99.90;;;;;;2074913;28;20119;-71
2022/11/25 01:04:14;;;;;;;11.73;3.30;;;10.00;99.90;;;;;;2076125;28;20030;-71
2022/11/25 01:05:15;;;;;;;16.38;3.28;;;10.00;99.90;;;;;;2075838;28;20112;-71
2022/11/25 01:06:15;;;;;;;12.85;3.60;;;10.00;99.90;;;;;;2076797;28;20056;-71
2022/11/25 01:07:17;;;;;;;16.77;4.07;;;10.00;99.90;;;;;;2073311;28;20029;-71
2022/11/25 01:08:17;;;;;;;10.02;2.72;;;10.00;99.90;;;;;;2075370;28;20087;-71
2022/11/25 01:09:18;;;;;;;12.73;3.17;;;10.00;99.90;;;;;;2076659;28;20037;-71
2022/11/25 01:10:19;;;;;;;11.00;3.30;;;10.00;99.90;;;;;;2075623;28;20737;-71
2022/11/25 01:11:21;;;;;;;13.27;3.63;;;10.00;99.90;;;;;;2074769;28;20029;-71
2022/11/25 01:12:22;;;;;;;15.82;3.35;;;10.00;99.90;;;;;;2075721;28;20053;-71
2022/11/25 01:13:22;;;;;;;13.30;3.08;;;10.00;99.90;;;;;;2077483;28;20049;-71
2022/11/25 01:14:23;;;;;;;12.50;2.97;;;10.00;99.90;;;;;;2077400;28;20072;-71
2022/11/25 01:15:24;;;;;;;17.85;3.97;;;10.10;99.90;;;;;;2067793;28;20037;-71
2022/11/25 01:16:25;;;;;;;13.90;3.55;;;10.10;99.90;;;;;;2078159;28;20028;-71
2022/11/25 01:17:26;;;;;;;12.57;3.60;;;10.10;99.90;;;;;;2076621;28;20030;-71
2022/11/25 01:18:27;;;;;;;8.93;2.97;;;10.10;99.90;;;;;;2078237;28;20136;-71
2022/11/25 01:19:28;;;;;;;14.80;3.28;;;10.10;99.90;;;;;;2077862;28;20029;-71
2022/11/25 01:20:28;;;;;;;16.23;3.83;;;10.10;99.90;;;;;;2076728;28;20068;-71
2022/11/25 01:21:31;;;;;;;10.77;3.33;;;10.10;99.90;;;;;;2077298;28;20033;-71
2022/11/25 01:22:32;;;;;;;13.40;3.20;;;10.10;99.90;;;;;;2076830;28;20492;-71
2022/11/25 01:23:33;;;;;;;10.38;3.05;;;10.10;99.90;;;;;;2078904;28;20447;-71
2022/11/25 01:24:34;;;;;;;15.60;3.38;;;10.10;99.90;;;;;;2078732;28;22018;-71
2022/11/25 01:25:38;;;;;;;14.05;3.83;;;10.10;99.90;;;;;;2078386;28;20025;-71
2022/11/25 01:26:40;;;;;;;11.45;3.80;;;10.10;99.90;;;;;;2078058;28;20444;-71
2022/11/25 01:27:41;;;;;;;12.10;3.40;;;10.10;99.90;;;;;;2077526;28;20026;-71
2022/11/25 01:28:42;;;;;;;11.77;3.13;;;10.10;99.90;;;;;;2078204;28;20036;-71
2022/11/25 01:29:43;;;;;;;15.18;3.95;;;10.10;99.90;;;;;;2075514;28;20034;-71
2022/11/25 01:30:43;;;;;;;11.35;3.50;;;10.10;99.90;;;;;;2078452;28;20389;-71
2022/11/25 01:31:44;;;;;;;11.23;2.80;;;10.10;99.90;;;;;;2077234;28;20080;-71
2022/11/25 01:32:45;;;;;;;14.48;3.60;;;10.10;99.90;;;;;;2067366;28;20583;-71
2022/11/25 01:33:47;;;;;;;11.90;3.53;;;10.10;99.90;;;;;;2079005;28;20154;-71
2022/11/25 01:34:47;;;;;;;10.88;3.58;;;10.10;99.90;;;;;;2084198;28;20021;-71
2022/11/25 01:35:48;;;;;;;13.10;3.42;;;10.10;99.90;;;;;;2077267;28;20026;-71
2022/11/25 01:36:49;;;;;;;12.90;3.40;;;10.10;99.90;;;;;;2078913;28;20161;-71
2022/11/25 01:37:49;;;;;;;9.88;3.00;;;10.10;99.90;;;;;;2076436;28;20053;-71
2022/11/25 01:38:52;;;;;;;12.82;3.92;;;10.10;99.90;;;;;;2077845;28;20025;-71
2022/11/25 01:39:53;;;;;;;16.40;3.65;;;10.10;99.90;;;;;;2078632;28;20092;-71
2022/11/25 01:40:53;;;;;;;10.40;3.63;;;10.10;99.90;;;;;;2078167;28;20075;-71
2022/11/25 01:41:54;;;;;;;15.23;3.70;;;10.10;99.90;;;;;;2078653;28;20041;-71
2022/11/25 01:42:54;;;;;;;16.60;3.38;;;10.10;99.90;;;;;;2077835;28;20025;-71
2022/11/25 01:44:27;;;;;;;10.45;3.30;;;10.10;99.90;;;;;;2076217;28;20047;-71
2022/11/25 01:45:33;;;;;;;12.05;3.85;;;10.10;99.90;;;;;;2072811;28;20052;-71
2022/11/25 01:47:02;;;;;;;10.70;3.25;;;10.10;99.90;;;;;;2076435;28;20436;-71
2022/11/25 01:48:33;;;;;;;14.80;3.03;;;10.10;99.90;;;;;;2074907;28;20089;-71
2022/11/25 01:49:52;;;;;;;13.13;3.35;;;10.10;99.90;;;;;;2076511;28;20037;-71
2022/11/25 01:50:53;;;;;;;14.68;3.67;;;10.00;99.90;;;;;;2075474;28;20032;-71
2022/11/25 01:52:06;;;;;;;11.30;3.33;;;10.00;99.90;;;;;;2077892;28;20033;-71
2022/11/25 01:53:10;;;;;;;13.27;3.10;;;10.00;99.90;;;;;;2077538;28;20021;-71
2022/11/25 01:54:16;;;;;;;13.00;3.30;;;10.00;99.90;;;;;;2079041;28;20086;-71
2022/11/25 01:55:23;;;;;;;15.43;4.10;;;10.00;99.90;;;;;;2078105;28;20076;-71
2022/11/25 01:56:25;;;;;;;10.30;3.28;;;10.00;99.90;;;;;;2076902;28;20056;-71
2022/11/25 01:57:31;;;;;;;13.07;3.63;;;10.00;99.90;;;;;;2076383;28;20428;-71
2022/11/25 01:58:36;;;;;;;15.20;3.55;;;10.00;99.90;;;;;;2069820;28;20033;-71
2022/11/25 01:59:42;;;;;;;12.40;3.15;;;10.10;99.90;;;;;;2076699;28;20083;-71
2022/11/25 02:00:50;;;;;;;11.00;3.05;;;10.00;99.90;;;;;;2078344;28;20025;-72
2022/11/25 02:01:51;;;;;;;16.67;3.10;;;10.10;99.90;;;;;;2077776;28;20458;-72
2022/11/25 02:02:54;;;;;;;12.77;3.55;;;10.10;99.90;;;;;;2077297;28;20057;-72
2022/11/25 02:03:57;;;;;;;15.52;3.80;;;10.10;99.90;;;;;;2078596;28;20361;-72
2022/11/25 02:05:00;;;;;;;14.82;4.00;;;10.10;99.90;;;;;;2077674;28;20128;-73
2022/11/25 02:06:21;;;;;;;15.10;3.17;;;10.10;99.90;;;;;;2076353;28;20030;-72
2022/11/25 02:07:37;;;;;;;11.35;3.35;;;10.00;99.90;;;;;;2077663;28;20029;-72
2022/11/25 02:08:39;;;;;;;14.32;3.55;;;10.00;99.90;;;;;;2076592;28;20040;-72
2022/11/25 02:09:42;;;;;;;12.15;3.47;;;10.00;99.90;;;;;;2076275;28;20010;-72
2022/11/25 02:10:43;;;;;;;13.75;3.75;;;10.00;99.90;;;;;;2077554;28;20033;-72
2022/11/25 02:11:44;;;;;;;14.45;4.07;;;10.00;99.90;;;;;;2077316;28;20032;-72
2022/11/25 02:12:46;;;;;;;7.63;3.25;;;10.10;99.90;;;;;;2077890;28;20033;-72
2022/11/25 02:13:48;;;;;;;13.18;3.20;;;10.00;99.90;;;;;;2077903;28;20072;-73
2022/11/25 02:14:50;;;;;;;11.63;3.70;;;10.00;99.90;;;;;;2076124;28;20564;-72
2022/11/25 02:15:51;;;;;;;10.35;3.10;;;10.10;99.90;;;;;;2076275;28;20022;-72
2022/11/25 02:16:51;;;;;;;10.90;3.50;;;10.00;99.90;;;;;;2077254;28;20041;-72
2022/11/25 02:17:52;;;;;;;12.07;3.80;;;10.10;99.90;;;;;;2077610;28;20048;-72
2022/11/25 02:18:53;;;;;;;15.48;3.53;;;10.00;99.90;;;;;;2078587;28;20485;-72
2022/11/25 02:20:10;;;;;;;12.38;3.67;;;10.10;99.90;;;;;;2076931;28;20025;-72
2022/11/25 02:21:15;;;;;;;11.50;3.00;;;10.00;99.90;;;;;;2076635;28;20030;-72
2022/11/25 02:22:25;;;;;;;14.30;3.38;;;10.00;99.90;;;;;;2078428;28;20132;-72
2022/11/25 02:24:06;;;;;;;15.30;3.83;;;10.00;99.90;;;;;;2076109;28;20017;-72
2022/11/25 02:25:20;;;;;;;11.32;3.00;;;10.00;99.90;;;;;;2075937;28;20595;-72
2022/11/25 02:26:21;;;;;;;11.63;3.83;;;10.00;99.90;;;;;;2076606;28;20033;-72
2022/11/25 02:27:22;;;;;;;11.68;3.53;;;10.00;99.90;;;;;;2078346;28;20083;-72
2022/11/25 02:28:29;;;;;;;9.98;3.40;;;10.00;99.90;;;;;;2076138;28;20034;-72
2022/11/25 02:29:31;;;;;;;13.63;3.33;;;10.00;99.90;;;;;;2076183;28;20036;-72
2022/11/25 02:30:32;;;;;;;11.10;3.03;;;10.00;99.90;;;;;;2076672;28;20132;-72
2022/11/25 02:31:32;;;;;;;10.57;3.22;;;10.00;99.90;;;;;;2075620;28;20101;-72
2022/11/25 02:32:33;;;;;;;10.95;3.47;;;10.00;99.90;;;;;;2076100;28;20051;-72
2022/11/25 02:33:33;;;;;;;10.55;3.00;;;10.00;99.90;;;;;;2075940;28;20047;-73
2022/11/25 02:34:34;;;;;;;16.02;3.50;;;10.10;99.90;;;;;;2075499;28;20030;-72
2022/11/25 02:35:40;;;;;;;11.48;3.35;;;10.10;99.90;;;;;;2077500;28;20037;-72
2022/11/25 02:36:41;;;;;;;15.20;3.65;;;10.10;99.90;;;;;;2077964;28;20028;-72
2022/11/25 02:37:41;;;;;;;18.02;3.70;;;10.10;99.90;;;;;;2076205;28;20049;-72
2022/11/25 02:38:56;;;;;;;8.93;3.25;;;10.10;99.90;;;;;;2078374;28;20401;-72
2022/11/25 02:39:57;;;;;;;16.15;3.72;;;10.10;99.90;;;;;;2077866;28;20187;-72
2022/11/25 02:41:08;;;;;;;11.73;3.53;;;10.10;99.90;;;;;;2075905;28;20025;-72
2022/11/25 02:42:09;;;;;;;10.23;3.47;;;10.10;99.90;;;;;;2085495;28;20049;-72
2022/11/25 02:43:10;;;;;;;7.68;2.50;;;10.10;99.90;;;;;;2083709;28;20037;-72
2022/11/25 02:44:10;;;;;;;12.98;3.65;;;10.10;99.90;;;;;;2084933;28;20063;-72
2022/11/25 02:45:13;;;;;;;10.90;3.45;;;10.10;99.90;;;;;;2077221;28;20038;-73
2022/11/25 02:46:17;;;;;;;17.65;4.32;;;10.10;99.90;;;;;;2076978;28;20461;-72
2022/11/25 02:47:18;;;;;;;13.18;3.83;;;10.10;99.90;;;;;;2076956;28;20032;-72
2022/11/25 02:48:18;;;;;;;14.00;3.67;;;10.10;99.90;;;;;;2077131;28;20033;-72
2022/11/25 02:49:19;;;;;;;15.70;3.33;;;10.10;99.90;;;;;;2077122;28;20025;-72
2022/11/25 02:50:19;;;;;;;12.75;3.78;;;10.10;99.90;;;;;;2075900;28;20152;-72
2022/11/25 02:51:22;;;;;;;12.93;3.40;;;10.10;99.90;;;;;;2077267;28;20626;-72
2022/11/25 02:52:23;;;;;;;14.13;3.15;;;10.10;99.90;;;;;;2075852;28;20041;-73
2022/11/25 02:53:23;;;;;;;13.80;3.78;;;10.10;99.90;;;;;;2077347;28;20496;-72
2022/11/25 02:54:24;;;;;;;12.45;4.00;;;10.10;99.90;;;;;;2077725;28;20748;-73
2022/11/25 02:55:24;;;;;;;12.80;3.30;;;10.10;99.90;;;;;;2077664;28;20041;-72
2022/11/25 02:56:31;;;;;;;11.82;3.38;;;10.10;99.90;;;;;;2076935;28;20432;-72
2022/11/25 02:57:31;;;;;;;13.52;3.78;;;10.10;99.90;;;;;;2076810;28;20026;-72
2022/11/25 02:58:32;;;;;;;14.40;3.80;;;10.10;99.90;;;;;;2078261;28;20029;-72
2022/11/25 02:59:32;;;;;;;18.92;3.83;;;10.10;99.90;;;;;;2078554;28;20028;-72
2022/11/25 03:00:33;;;;;;;12.13;3.90;;;10.20;99.90;;;;;;2077311;28;20520;-73
2022/11/25 03:01:35;;;;;;;14.82;4.15;;;10.20;99.90;;;;;;2077569;28;20029;-72
2022/11/25 03:02:35;;;;;;;10.55;3.33;;;10.20;99.90;;;;;;2075646;28;20037;-72
2022/11/25 03:03:36;;;;;;;11.25;3.35;;;10.20;99.90;;;;;;2078186;28;20033;-72
2022/11/25 03:04:37;;;;;;;10.65;3.25;;;10.20;99.90;;;;;;2075912;28;20108;-72
2022/11/25 03:05:38;;;;;;;10.32;3.10;;;10.20;99.90;;;;;;2076931;28;20025;-72
2022/11/25 03:06:38;;;;;;;11.68;3.60;;;10.20;99.90;;;;;;2078392;28;20474;-72
2022/11/25 03:07:39;;;;;;;7.78;2.78;;;10.20;99.90;;;;;;2076396;28;20099;-72
2022/11/25 03:08:40;;;;;;;11.32;3.28;;;10.20;99.90;;;;;;2077442;28;20025;-72
2022/11/25 03:09:42;;;;;;;8.75;3.30;;;10.30;99.90;;;;;;2076862;28;20136;-72
2022/11/25 03:10:43;;;;;;;11.23;3.15;;;10.30;99.90;;;;;;2077155;28;20101;-72
2022/11/25 03:13:04;;;;;;;11.00;3.63;;;10.30;99.90;;;;;;2077376;28;20021;-72
2022/11/25 03:14:05;;;;;;;14.38;3.60;;;10.30;99.90;;;;;;2077035;28;20017;-73
2022/11/25 03:15:06;;;;;;;12.35;3.65;;;10.30;99.90;;;;;;2076751;28;20036;-72
2022/11/25 03:16:06;;;;;;;8.48;2.83;;;10.30;99.90;;;;;;2077438;28;20021;-72
2022/11/25 03:17:07;;;;;;;14.00;3.70;;;10.30;99.90;;;;;;2076663;28;20186;-72
2022/11/25 03:18:08;;;;;;;9.93;3.20;;;10.40;99.90;;;;;;2078030;28;20036;-73
2022/11/25 03:19:08;;;;;;;13.57;3.30;;;10.40;99.90;;;;;;2074826;28;20022;-73
2022/11/25 03:20:11;;;;;;;16.48;3.90;;;10.40;99.90;;;;;;2076365;28;20489;-72
2022/11/25 03:21:12;;;;;;;8.82;3.17;;;10.40;99.90;;;;;;2076519;28;20026;-72
2022/11/25 03:22:12;;;;;;;13.45;3.70;;;10.40;99.90;;;;;;2075690;28;20053;-72
2022/11/25 03:23:13;;;;;;;12.40;3.85;;;10.40;99.90;;;;;;2076037;28;20037;-72
2022/11/25 03:24:13;;;;;;;10.45;2.65;;;10.40;99.90;;;;;;2077854;28;20029;-73
2022/11/25 03:25:14;;;;;;;14.60;4.22;;;10.40;99.90;;;;;;2074988;28;20105;-72
2022/11/25 03:26:15;;;;;;;11.75;3.33;;;10.40;99.90;;;;;;2077795;28;20045;-73
2022/11/25 03:27:15;;;;;;;12.48;3.50;;;10.40;99.90;;;;;;2077191;28;20087;-73
2022/11/25 03:28:16;;;;;;;13.95;3.08;;;10.50;99.90;;;;;;2074434;28;20057;-73
2022/11/25 03:29:16;;;;;;;15.27;3.90;;;10.50;99.90;;;;;;2077018;28;20035;-73
2022/11/25 03:30:20;;;;;;;14.63;4.07;;;10.50;99.90;;;;;;2076345;28;20730;-73
2022/11/25 03:31:20;;;;;;;9.93;3.30;;;10.50;99.90;;;;;;2075028;28;20084;-72
2022/11/25 03:32:21;;;;;;;11.85;3.55;;;10.50;99.90;;;;;;2077693;28;20030;-72
2022/11/25 03:33:21;;;;;;;12.02;3.47;;;10.50;99.90;;;;;;2076440;28;20083;-72
2022/11/25 03:34:22;;;;;;;12.65;3.15;;;10.50;99.90;;;;;;2076864;28;20037;-73
2022/11/25 03:35:22;;;;;;;10.45;3.58;;;10.50;99.90;;;;;;2075278;28;20037;-72
2022/11/25 03:36:23;;;;;;;11.32;2.97;;;10.60;99.90;;;;;;2074438;28;20042;-72
2022/11/25 03:37:24;;;;;;;15.48;4.43;;;10.50;99.90;;;;;;2077241;28;20037;-72
2022/11/25 03:38:24;;;;;;;13.98;3.90;;;10.50;99.90;;;;;;2075582;28;20030;-73
2022/11/25 03:39:25;;;;;;;15.10;3.25;;;10.50;99.90;;;;;;2076915;28;20522;-72
2022/11/25 03:40:25;;;;;;;11.05;3.10;;;10.60;99.90;;;;;;2083648;28;20107;-72
2022/11/25 03:41:26;;;;;;;12.85;3.47;;;10.60;99.90;;;;;;2084426;28;20021;-72
2022/11/25 03:42:26;;;;;;;11.75;3.22;;;10.60;99.90;;;;;;2074837;28;20065;-72
2022/11/25 03:43:27;;;;;;;13.85;3.33;;;10.60;99.90;;;;;;2073332;28;20092;-72
2022/11/25 03:44:27;;;;;;;13.88;3.35;;;10.60;99.90;;;;;;2076741;28;20040;-72
2022/11/25 03:45:28;;;;;;;9.00;3.00;;;10.60;99.90;;;;;;2077066;28;20036;-72
2022/11/25 03:46:28;;;;;;;13.88;3.38;;;10.60;99.90;;;;;;2076330;28;20078;-72
2022/11/25 03:47:29;;;;;;;8.98;3.10;;;10.60;99.90;;;;;;2078403;28;20108;-72
2022/11/25 03:48:29;;;;;;;15.00;3.30;;;10.60;99.90;;;;;;2076888;28;20029;-72
2022/11/25 03:49:30;;;;;;;13.07;3.65;;;10.60;99.90;;;;;;2073818;28;20031;-72
2022/11/25 03:50:30;;;;;;;13.98;3.55;;;10.70;99.90;;;;;;2075589;28;20392;-72
2022/11/25 03:51:31;;;;;;;11.05;3.15;;;10.60;99.90;;;;;;2076199;28;20452;-72
2022/11/25 03:52:31;;;;;;;12.13;3.58;;;10.60;99.90;;;;;;2078021;28;20029;-72
2022/11/25 03:53:32;;;;;;;12.40;3.60;;;10.60;99.90;;;;;;2077120;28;20018;-72
2022/11/25 03:54:33;;;;;;;11.15;3.63;;;10.70;99.90;;;;;;2076286;28;20104;-72
2022/11/25 03:55:33;;;;;;;11.65;2.83;;;10.70;99.90;;;;;;2075676;28;20115;-72
2022/11/25 03:56:34;;;;;;;12.98;3.53;;;10.70;99.90;;;;;;2077797;28;20034;-72
2022/11/25 03:57:34;;;;;;;9.77;3.20;;;10.70;99.90;;;;;;2077545;28;20241;-72
2022/11/25 03:58:35;;;;;;;7.72;2.65;;;10.70;99.90;;;;;;2076367;28;20113;-72
2022/11/25 03:59:35;;;;;;;11.95;3.40;;;10.70;99.90;;;;;;2077354;28;20033;-72
2022/11/25 04:00:38;;;;;;;11.15;3.15;;;10.70;99.90;;;;;;2076452;28;20021;-72
2022/11/25 04:01:38;;;;;;;9.63;3.15;;;10.70;99.90;;;;;;2077069;28;20033;-73
2022/11/25 04:02:39;;;;;;;12.45;3.42;;;10.70;99.90;;;;;;2076369;28;20109;-72
2022/11/25 04:03:39;;;;;;;10.23;2.83;;;10.70;99.90;;;;;;2076666;28;20168;-72
2022/11/25 04:04:40;;;;;;;9.50;2.75;;;10.70;99.90;;;;;;2075548;28;20025;-73
2022/11/25 04:05:41;;;;;;;10.88;3.33;;;10.70;99.90;;;;;;2077340;28;20037;-73
2022/11/25 04:06:41;;;;;;;12.55;2.95;;;10.70;99.90;;;;;;2075521;28;20092;-73
2022/11/25 04:07:42;;;;;;;10.20;2.85;;;10.70;99.90;;;;;;2069641;28;20022;-72
2022/11/25 04:08:42;;;;;;;12.73;3.53;;;10.70;99.90;;;;;;2077959;28;20116;-72
2022/11/25 04:09:43;;;;;;;12.23;2.63;;;10.80;99.90;;;;;;2075654;28;20037;-72
2022/11/25 04:10:43;;;;;;;11.15;3.05;;;10.70;99.90;;;;;;2078174;28;20132;-72
2022/11/25 04:13:03;;;;;;;9.32;3.67;;;10.80;99.90;;;;;;2075656;28;20013;-73
2022/11/25 04:14:04;;;;;;;12.10;3.03;;;10.70;99.90;;;;;;2075950;28;20038;-72
2022/11/25 04:15:05;;;;;;;11.35;3.05;;;10.80;99.90;;;;;;2076235;28;20030;-72
2022/11/25 04:16:05;;;;;;;10.82;3.42;;;10.80;99.90;;;;;;2075914;28;20543;-72
2022/11/25 04:17:06;;;;;;;11.18;3.75;;;10.80;99.90;;;;;;2076606;28;20025;-72
2022/11/25 04:18:06;;;;;;;12.48;2.97;;;10.80;99.90;;;;;;2076654;28;20057;-72
2022/11/25 04:19:07;;;;;;;9.95;2.80;;;10.80;99.90;;;;;;2077305;28;20037;-72
2022/11/25 04:20:09;;;;;;;9.38;3.33;;;10.80;99.90;;;;;;2076256;28;20030;-72
2022/11/25 04:21:09;;;;;;;11.68;2.95;;;10.80;99.90;;;;;;2077985;28;20703;-72
2022/11/25 04:22:10;;;;;;;13.20;3.10;;;10.80;99.90;;;;;;2074745;28;20088;-72
2022/11/25 04:23:11;;;;;;;8.48;2.97;;;10.80;99.90;;;;;;2076938;28;20032;-72
2022/11/25 04:24:12;;;;;;;17.15;3.63;;;10.80;99.90;;;;;;2077706;28;20061;-72
2022/11/25 04:25:12;;;;;;;10.75;3.50;;;10.80;99.90;;;;;;2074723;28;20022;-72
2022/11/25 04:26:13;;;;;;;12.93;3.33;;;10.80;99.90;;;;;;2076157;28;20025;-72
2022/11/25 04:27:13;;;;;;;10.88;3.10;;;10.80;99.90;;;;;;2075733;28;20055;-72
2022/11/25 04:28:14;;;;;;;14.13;3.25;;;10.80;99.90;;;;;;2076690;28;20709;-72
2022/11/25 04:29:15;;;;;;;13.13;3.55;;;10.90;99.90;;;;;;2075519;28;20095;-72
2022/11/25 04:30:15;;;;;;;9.93;3.30;;;10.90;99.90;;;;;;2075819;28;20038;-72
2022/11/25 04:31:16;;;;;;;11.25;3.33;;;10.90;99.90;;;;;;2077204;28;20029;-72
2022/11/25 04:32:16;;;;;;;10.85;3.35;;;10.90;99.90;;;;;;2077454;28;20040;-72
2022/11/25 04:33:17;;;;;;;10.88;3.67;;;10.90;99.90;;;;;;2074336;28;20762;-72
2022/11/25 04:34:17;;;;;;;12.52;3.30;;;10.90;99.90;;;;;;2074791;28;20084;-72
2022/11/25 04:35:18;;;;;;;9.88;2.88;;;10.90;99.90;;;;;;2075783;28;20033;-72
2022/11/25 04:36:19;;;;;;;11.63;2.90;;;10.90;99.90;;;;;;2076519;28;20141;-72
2022/11/25 04:37:19;;;;;;;10.07;3.58;;;10.90;99.90;;;;;;2075726;28;20038;-72
2022/11/25 04:38:20;;;;;;;11.70;3.35;;;10.90;99.90;;;;;;2075077;28;20036;-73
2022/11/25 04:39:20;;;;;;;10.55;2.58;;;10.90;99.90;;;;;;2076120;28;20072;-72
2022/11/25 04:40:21;;;;;;;9.73;2.65;;;10.90;99.90;;;;;;2077826;28;20029;-72
2022/11/25 04:41:21;;;;;;;12.52;3.47;;;11.00;99.90;;;;;;2075594;28;20033;-72
2022/11/25 04:42:31;;;;;;;11.65;3.08;;;11.00;99.90;;;;;;2076820;28;20056;-72
2022/11/25 04:43:31;;;;;;;7.85;2.38;;;11.00;99.90;;;;;;2076576;28;20132;-72
2022/11/25 04:44:32;;;;;;;12.15;3.22;;;11.00;99.90;;;;;;2074693;28;20052;-72
2022/11/25 04:45:32;;;;;;;9.70;3.50;;;11.00;99.90;;;;;;2074671;28;20029;-72
2022/11/25 04:46:37;;;;;;;9.82;3.53;;;11.00;99.90;;;;;;2076927;28;20085;-72
2022/11/25 04:47:38;;;;;;;11.32;2.75;;;11.00;99.90;;;;;;2076996;28;20021;-72
2022/11/25 04:48:38;;;;;;;11.50;3.17;;;11.00;99.90;;;;;;2075779;28;20030;-73
2022/11/25 04:49:39;;;;;;;10.20;3.13;;;11.00;99.90;;;;;;2076672;28;20114;-72
2022/11/25 04:50:39;;;;;;;12.65;3.45;;;11.00;99.90;;;;;;2077032;28;20022;-72
2022/11/25 04:51:40;;;;;;;9.25;3.00;;;11.00;99.90;;;;;;2077271;28;20024;-72
2022/11/25 04:52:41;;;;;;;15.73;3.83;;;11.00;99.90;;;;;;2077147;28;20033;-72
2022/11/25 04:53:42;;;;;;;16.45;4.10;;;11.00;99.90;;;;;;2077100;28;20033;-72
2022/11/25 04:54:43;;;;;;;14.32;3.38;;;11.00;99.90;;;;;;2073982;28;20030;-72
2022/11/25 04:55:43;;;;;;;9.38;2.85;;;11.00;99.90;;;;;;2074947;28;20108;-72
2022/11/25 04:56:44;;;;;;;10.90;2.95;;;11.00;99.90;;;;;;2080013;28;20025;-73
2022/11/25 04:57:44;;;;;;;11.38;3.17;;;11.00;99.90;;;;;;2080026;28;20021;-73
2022/11/25 05:00:06;;;;;;;9.93;2.85;;;11.10;99.90;;;;;;2076288;28;20030;-72
2022/11/25 05:01:07;;;;;;;9.30;2.55;;;11.00;99.90;;;;;;2075867;28;20100;-72
2022/11/25 05:02:28;;;;;;;8.65;3.20;;;11.00;99.90;;;;;;2076816;28;20026;-72
2022/11/25 05:03:29;;;;;;;12.00;2.92;;;11.00;99.90;;;;;;2074693;28;20434;-72
2022/11/25 05:04:30;;;;;;;12.80;3.63;;;11.00;99.90;;;;;;2077241;28;20034;-72
2022/11/25 05:05:30;;;;;;;10.77;3.53;;;11.10;99.90;;;;;;2074467;28;20096;-72
2022/11/25 05:06:31;;;;;;;10.00;3.22;;;11.10;99.90;;;;;;2076600;28;20033;-72
2022/11/25 05:07:32;;;;;;;13.90;2.97;;;11.00;99.90;;;;;;2076716;28;20100;-72
2022/11/25 05:08:32;;;;;;;12.30;3.28;;;11.00;99.90;;;;;;2075848;28;20026;-72
2022/11/25 05:09:33;;;;;;;8.88;3.15;;;11.10;99.90;;;;;;2077403;28;20049;-72
2022/11/25 05:10:34;;;;;;;8.38;2.92;;;11.10;99.90;;;;;;2075918;28;20096;-72
2022/11/25 05:11:34;;;;;;;11.95;3.03;;;11.00;99.90;;;;;;2076949;28;20029;-72
2022/11/25 05:12:35;;;;;;;11.95;3.15;;;11.00;99.90;;;;;;2076214;28;20025;-72
2022/11/25 05:13:36;;;;;;;13.05;3.13;;;11.10;99.90;;;;;;2075753;28;20469;-72
2022/11/25 05:14:36;;;;;;;12.35;3.25;;;11.10;99.90;;;;;;2074410;28;20343;-73
2022/11/25 05:15:37;;;;;;;9.18;3.17;;;11.10;99.90;;;;;;2082151;28;20443;-72
2022/11/25 05:16:37;;;;;;;10.13;2.70;;;11.10;99.90;;;;;;2083320;28;20082;-72
2022/11/25 05:17:38;;;;;;;15.32;3.40;;;11.10;99.90;;;;;;2082185;28;20169;-72
2022/11/25 05:18:39;;;;;;;12.70;3.38;;;11.10;99.90;;;;;;2074195;28;22046;-72
2022/11/25 05:19:40;;;;;;;14.02;3.40;;;11.10;99.90;;;;;;2074963;28;20022;-72
2022/11/25 05:20:40;;;;;;;11.52;3.65;;;11.10;99.90;;;;;;2077818;28;20025;-72
2022/11/25 05:21:41;;;;;;;12.57;3.40;;;11.10;99.90;;;;;;2074857;28;20030;-72
2022/11/25 05:22:41;;;;;;;14.75;3.42;;;11.10;99.90;;;;;;2076272;28;20025;-72
2022/11/25 05:23:42;;;;;;;12.45;3.67;;;11.10;99.90;;;;;;2075302;28;20084;-72
2022/11/25 05:24:42;;;;;;;9.13;2.53;;;11.10;99.90;;;;;;2076622;28;20029;-72
2022/11/25 05:25:43;;;;;;;11.82;3.05;;;11.10;99.90;;;;;;2075783;28;20029;-73
2022/11/25 05:26:44;;;;;;;9.82;2.90;;;11.10;99.90;;;;;;2082031;28;20027;-73
2022/11/25 05:27:44;;;;;;;13.90;2.95;;;11.10;99.90;;;;;;2085467;28;20504;-72
2022/11/25 05:28:44;;;;;;;12.35;3.25;;;11.10;99.90;;;;;;2077899;28;20025;-72